Time;durP1;ratioP1;P1;durP2;ratioP2;P2;SDS_P1;SDS_P2;PMS_P1;PMS_P2;Temp;Humidity;BMP_temperature;BMP_pressure;BME280_temperature;BME280_humidity;BME280_pressure;Samples;Min_cycle;Max_cycle;Signal;HPM_P1;HPM_P2
2023/07/05 00:00:52;;;;;;;18.77;14.18;;;;;;;21.54;41.49;100247.38;5038451;28;20268;-60
2023/07/05 00:03:19;;;;;;;18.08;14.00;;;;;;;21.52;41.88;100248.38;5042233;28;20747;-61
2023/07/05 00:05:48;;;;;;;16.23;12.57;;;;;;;21.49;42.05;100245.91;5049695;28;20205;-61
2023/07/05 00:08:16;;;;;;;18.00;13.55;;;;;;;21.45;41.97;100251.31;5046813;28;20209;-62
2023/07/05 00:10:44;;;;;;;20.98;13.50;;;;;;;21.40;41.99;100245.47;5050654;28;20604;-60
2023/07/05 00:13:12;;;;;;;16.90;13.52;;;;;;;21.35;42.18;100247.47;5049917;28;20571;-62
2023/07/05 00:15:47;;;;;;;18.15;13.13;;;;;;;21.33;42.13;100251.09;5045713;28;20217;-60
2023/07/05 00:18:15;;;;;;;17.42;12.50;;;;;;;21.33;42.19;100256.34;5050688;28;20213;-60
2023/07/05 00:20:44;;;;;;;15.63;12.15;;;;;;;21.32;42.45;100257.25;5048684;28;20198;-60
2023/07/05 00:23:12;;;;;;;15.50;12.35;;;;;;;21.29;42.68;100260.06;5042149;28;20207;-60
2023/07/05 00:25:41;;;;;;;16.42;13.00;;;;;;;21.27;42.88;100254.88;5045738;28;20245;-61
2023/07/05 00:28:09;;;;;;;16.08;12.32;;;;;;;21.23;42.51;100248.09;5035722;28;20202;-60
2023/07/05 00:30:37;;;;;;;17.98;13.20;;;;;;;21.13;42.56;100242.50;5034944;28;20214;-60
2023/07/05 00:33:06;;;;;;;18.13;13.57;;;;;;;21.13;42.51;100250.34;5043110;28;20206;-60
2023/07/05 00:35:34;;;;;;;17.48;12.52;;;;;;;21.09;43.02;100251.44;5042467;28;20201;-62
2023/07/05 00:38:03;;;;;;;23.42;13.98;;;;;;;21.04;43.27;100252.63;5042580;28;20268;-61
2023/07/05 00:40:31;;;;;;;19.85;15.13;;;;;;;20.99;43.58;100247.63;5045678;28;20237;-60
2023/07/05 00:42:59;;;;;;;18.48;12.98;;;;;;;20.95;43.51;100246.06;5043311;28;20240;-61
2023/07/05 00:45:53;;;;;;;17.40;13.00;;;;;;;20.96;43.61;100245.16;5050656;28;20604;-60
2023/07/05 00:48:29;;;;;;;17.65;13.65;;;;;;;20.95;43.48;100248.69;5050770;28;20244;-60
2023/07/05 00:51:01;;;;;;;17.67;13.02;;;;;;;20.90;43.56;100240.22;5040492;28;20568;-60
2023/07/05 00:53:30;;;;;;;16.67;12.85;;;;;;;20.90;43.80;100242.84;5040015;28;20205;-60
2023/07/05 00:56:07;;;;;;;16.08;12.40;;;;;;;20.89;44.38;100254.25;5049836;28;20210;-59
2023/07/05 00:58:35;;;;;;;17.15;12.65;;;;;;;20.85;44.10;100250.09;5047132;28;20198;-61
2023/07/05 01:01:04;;;;;;;17.65;12.63;;;;;;;20.83;44.11;100249.31;5048725;28;20202;-61
2023/07/05 01:03:34;;;;;;;21.33;12.25;;;;;;;20.82;43.83;100247.63;5048249;28;20629;-60
2023/07/05 01:06:06;;;;;;;21.23;11.77;;;;;;;20.83;43.62;100251.94;5037231;28;20202;-59
2023/07/05 01:08:34;;;;;;;14.82;12.45;;;;;;;20.85;43.54;100247.47;5043882;28;20198;-61
2023/07/05 01:11:10;;;;;;;16.95;12.60;;;;;;;20.85;43.61;100248.31;5044647;28;20206;-59
2023/07/05 01:13:46;;;;;;;18.20;12.82;;;;;;;20.82;43.44;100247.63;5049497;28;20297;-60
2023/07/05 01:16:24;;;;;;;22.05;13.93;;;;;;;20.78;44.23;100248.72;5046869;28;20198;-60
2023/07/05 01:19:00;;;;;;;19.42;13.15;;;;;;;20.73;44.43;100255.03;5053298;28;20198;-65
2023/07/05 01:21:36;;;;;;;19.55;13.25;;;;;;;20.67;44.90;100254.50;5045214;28;20272;-60
2023/07/05 01:24:24;;;;;;;17.83;13.70;;;;;;;20.59;44.94;100256.66;5048924;28;20572;-60
2023/07/05 01:27:31;;;;;;;19.08;13.27;;;;;;;20.51;45.10;100251.78;5040606;28;20239;-59
2023/07/05 01:30:23;;;;;;;15.00;13.30;;;;;;;20.49;44.97;100261.44;5041045;28;20578;-59
2023/07/05 01:32:58;;;;;;;18.70;13.45;;;;;;;20.45;45.46;100254.66;5042221;28;20259;-60
2023/07/05 01:35:30;;;;;;;17.83;12.95;;;;;;;20.40;45.62;100262.75;5049162;28;20316;-59
2023/07/05 01:37:58;;;;;;;16.15;12.77;;;;;;;20.36;45.89;100257.72;5049596;28;20297;-60
2023/07/05 01:40:57;;;;;;;19.25;13.13;;;;;;;20.32;46.28;100254.41;5044709;28;20210;-60
2023/07/05 01:43:27;;;;;;;18.00;12.73;;;;;;;20.26;46.01;100250.31;5050547;28;20210;-60
2023/07/05 01:46:10;;;;;;;19.25;12.40;;;;;;;20.26;45.91;100250.31;5049795;28;21540;-60
2023/07/05 01:48:50;;;;;;;18.00;13.02;;;;;;;20.24;46.08;100252.16;5046265;28;20205;-61
2023/07/05 01:51:27;;;;;;;19.65;12.77;;;;;;;20.23;46.06;100249.63;5046062;28;20198;-60
2023/07/05 01:54:03;;;;;;;17.30;12.93;;;;;;;20.21;45.88;100249.72;5051825;28;20721;-60
2023/07/05 01:56:37;;;;;;;19.80;12.73;;;;;;;20.21;45.94;100247.09;5052975;28;20194;-59
2023/07/05 01:59:09;;;;;;;14.43;11.07;;;;;;;20.21;45.93;100246.22;5051463;28;20662;-61
2023/07/05 02:01:42;;;;;;;16.10;12.52;;;;;;;20.19;45.85;100253.31;5050575;28;20241;-61
2023/07/05 02:04:13;;;;;;;19.05;13.50;;;;;;;20.20;45.91;100255.84;5048089;28;20206;-61
2023/07/05 02:06:43;;;;;;;18.05;12.90;;;;;;;20.16;46.55;100254.31;5040927;28;20594;-70
2023/07/05 02:09:11;;;;;;;17.58;12.18;;;;;;;20.20;46.50;100255.84;5051428;28;20233;-66
2023/07/05 02:11:39;;;;;;;18.70;12.00;;;;;;;20.10;46.44;100241.50;5052790;28;20210;-66
2023/07/05 02:14:07;;;;;;;18.30;11.93;;;;;;;20.16;46.45;100258.69;5046415;28;20571;-66
2023/07/05 02:16:35;;;;;;;17.83;12.93;;;;;;;20.18;46.35;100256.88;5042575;28;20202;-66
2023/07/05 02:19:03;;;;;;;19.45;10.98;;;;;;;20.16;46.10;100263.94;5042043;28;20544;-66
2023/07/05 02:21:32;;;;;;;20.00;12.05;;;;;;;20.11;46.38;100261.53;5047630;28;20206;-64
2023/07/05 02:24:00;;;;;;;15.50;12.35;;;;;;;20.12;46.89;100268.44;5046173;28;20210;-65
2023/07/05 02:26:28;;;;;;;17.77;11.75;;;;;;;20.11;47.08;100272.00;5048032;28;20237;-66
2023/07/05 02:28:56;;;;;;;18.17;12.75;;;;;;;20.12;47.23;100273.69;5051263;28;20206;-66
2023/07/05 02:31:24;;;;;;;15.45;11.63;;;;;;;20.11;47.28;100279.84;5047923;28;20202;-66
2023/07/05 02:33:52;;;;;;;18.02;12.43;;;;;;;20.09;47.57;100284.28;5051484;28;20538;-66
2023/07/05 02:36:20;;;;;;;15.43;11.07;;;;;;;20.06;47.77;100278.34;5041392;28;20231;-65
2023/07/05 02:38:53;;;;;;;14.07;11.10;;;;;;;20.05;47.52;100280.13;5047182;28;20225;-67
2023/07/05 02:41:21;;;;;;;14.90;10.50;;;;;;;19.99;47.10;100283.91;5049201;28;20205;-67
2023/07/05 02:43:50;;;;;;;15.88;10.85;;;;;;;19.95;47.36;100282.31;5044605;28;20612;-68
2023/07/05 02:46:18;;;;;;;15.63;10.80;;;;;;;19.92;47.34;100289.44;5052051;28;20205;-66
2023/07/05 02:48:46;;;;;;;14.23;10.30;;;;;;;19.87;47.41;100287.06;5051187;28;20209;-67
2023/07/05 02:51:14;;;;;;;16.60;10.38;;;;;;;19.79;47.98;100292.63;5049589;28;20202;-67
2023/07/05 02:53:42;;;;;;;12.70;10.02;;;;;;;19.70;48.11;100292.19;5041321;28;20572;-67
2023/07/05 02:56:11;;;;;;;16.60;10.95;;;;;;;19.63;48.46;100296.03;5049694;28;20238;-66
2023/07/05 02:58:40;;;;;;;15.57;11.13;;;;;;;19.58;48.59;100303.19;5046901;28;20680;-67
2023/07/05 03:01:08;;;;;;;14.10;10.45;;;;;;;19.50;48.87;100296.53;5048151;28;20560;-67
2023/07/05 03:03:36;;;;;;;18.70;11.45;;;;;;;19.46;49.16;100291.50;5047477;28;20244;-67
2023/07/05 03:06:04;;;;;;;14.98;10.27;;;;;;;19.42;49.48;100290.81;5051369;28;20224;-67
2023/07/05 03:08:33;;;;;;;14.45;11.02;;;;;;;19.34;49.75;100279.00;5046042;28;20240;-67
2023/07/05 03:11:01;;;;;;;14.18;10.52;;;;;;;19.40;49.83;100294.38;5051560;28;20589;-66
2023/07/05 03:13:32;;;;;;;13.88;9.98;;;;;;;19.38;49.90;100296.25;5044696;28;20289;-65
2023/07/05 03:16:01;;;;;;;14.55;10.00;;;;;;;19.35;49.62;100301.59;5047865;28;20260;-67
2023/07/05 03:18:29;;;;;;;13.43;10.60;;;;;;;19.33;49.85;100293.84;5050528;28;20228;-67
2023/07/05 03:20:58;;;;;;;16.00;10.35;;;;;;;19.25;49.73;100291.53;5051143;28;20232;-66
2023/07/05 03:23:26;;;;;;;17.40;10.95;;;;;;;19.22;49.74;100290.81;5046858;28;20202;-65
2023/07/05 03:25:56;;;;;;;14.48;10.63;;;;;;;19.15;49.90;100295.47;5048733;28;20240;-66
2023/07/05 03:28:26;;;;;;;17.13;11.88;;;;;;;19.12;49.89;100300.81;5039933;28;20252;-67
2023/07/05 03:30:58;;;;;;;15.43;10.30;;;;;;;19.14;50.08;100298.97;5037012;28;20206;-66
2023/07/05 03:33:27;;;;;;;12.13;10.15;;;;;;;19.12;50.25;100290.38;5044514;28;20226;-65
2023/07/05 03:35:59;;;;;;;17.27;10.90;;;;;;;19.17;49.89;100296.25;5044168;28;20922;-67
2023/07/05 03:38:29;;;;;;;16.02;10.32;;;;;;;19.22;50.12;100298.66;5045165;28;20210;-67
2023/07/05 03:40:58;;;;;;;13.43;9.85;;;;;;;19.27;49.75;100300.16;5041488;28;20206;-67
2023/07/05 03:43:26;;;;;;;16.52;10.15;;;;;;;19.29;49.61;100308.78;5050642;28;20205;-66
2023/07/05 03:45:59;;;;;;;13.85;10.10;;;;;;;19.34;49.68;100300.75;5043304;28;20654;-66
2023/07/05 03:48:30;;;;;;;15.50;9.98;;;;;;;19.34;49.12;100305.13;5044987;28;20284;-66
2023/07/05 03:50:59;;;;;;;14.90;10.18;;;;;;;19.34;49.17;100310.34;5039880;28;20624;-65
2023/07/05 03:53:27;;;;;;;13.30;9.77;;;;;;;19.38;49.28;100318.00;5045277;28;20206;-67
2023/07/05 03:56:01;;;;;;;13.43;9.40;;;;;;;19.38;49.41;100311.91;5044359;28;20241;-67
2023/07/05 03:58:30;;;;;;;14.82;9.85;;;;;;;19.41;49.00;100314.41;5048363;28;20202;-68
2023/07/05 04:01:08;;;;;;;14.02;9.77;;;;;;;19.42;48.64;100303.88;5051218;28;20660;-66
2023/07/05 04:03:36;;;;;;;17.50;9.48;;;;;;;19.45;48.67;100302.91;5043786;28;20252;-66
2023/07/05 04:06:05;;;;;;;13.73;9.05;;;;;;;19.48;48.68;100308.84;5046874;28;20213;-67
2023/07/05 04:08:33;;;;;;;14.35;9.77;;;;;;;19.54;48.52;100307.69;5042680;28;20194;-66
2023/07/05 04:11:01;;;;;;;12.23;9.02;;;;;;;19.63;48.24;100309.94;5043010;28;20206;-66
2023/07/05 04:13:29;;;;;;;15.10;10.00;;;;;;;19.71;48.12;100309.59;5036242;28;20210;-66
2023/07/05 04:15:59;;;;;;;12.23;9.25;;;;;;;19.79;47.97;100310.09;5050205;28;20689;-66
2023/07/05 04:18:30;;;;;;;13.73;9.80;;;;;;;19.84;48.03;100308.09;5045186;28;20201;-67
2023/07/05 04:20:58;;;;;;;11.45;8.73;;;;;;;19.91;47.78;100308.69;5040998;28;20731;-67
2023/07/05 04:23:26;;;;;;;12.80;8.68;;;;;;;19.97;47.51;100311.88;5045025;28;20198;-65
2023/07/05 04:26:06;;;;;;;14.35;8.48;;;;;;;19.99;47.25;100315.28;5042872;28;20238;-67
2023/07/05 04:28:36;;;;;;;13.18;8.73;;;;;;;20.04;46.85;100317.69;5039535;28;20202;-66
2023/07/05 04:31:05;;;;;;;13.82;8.65;;;;;;;20.08;46.84;100319.22;5047699;28;20221;-67
2023/07/05 04:33:34;;;;;;;12.38;8.35;;;;;;;20.12;46.43;100315.53;5049719;28;20255;-67
2023/07/05 04:36:03;;;;;;;13.45;8.77;;;;;;;20.18;46.82;100320.50;5040127;28;20575;-67
2023/07/05 04:38:31;;;;;;;14.90;9.10;;;;;;;20.23;46.72;100313.28;5046370;28;20225;-66
2023/07/05 04:41:00;;;;;;;11.98;8.68;;;;;;;20.23;46.40;100308.03;5041785;28;20213;-67
2023/07/05 04:43:29;;;;;;;12.88;9.23;;;;;;;20.41;46.57;100326.41;5043367;28;20641;-67
2023/07/05 04:45:58;;;;;;;14.15;9.00;;;;;;;20.53;45.99;100327.63;5047804;28;20202;-67
2023/07/05 04:48:29;;;;;;;14.00;8.27;;;;;;;20.64;45.82;100328.78;5054662;28;20563;-70
2023/07/05 04:50:58;;;;;;;12.48;8.38;;;;;;;20.69;44.99;100326.81;5050579;28;20308;-67
2023/07/05 04:53:28;;;;;;;11.07;8.73;;;;;;;20.78;45.05;100327.28;5048722;28;20279;-66
2023/07/05 04:55:58;;;;;;;12.93;8.13;;;;;;;20.86;44.67;100325.13;5041067;28;20580;-66
2023/07/05 04:58:26;;;;;;;13.15;7.78;;;;;;;20.96;44.35;100329.81;5046131;28;20912;-69
2023/07/05 05:01:02;;;;;;;13.13;8.55;;;;;;;21.07;44.62;100331.06;5045522;28;20206;-66
2023/07/05 05:03:31;;;;;;;10.32;7.70;;;;;;;21.22;44.00;100319.81;5045410;28;20359;-65
2023/07/05 05:06:01;;;;;;;14.45;8.15;;;;;;;21.37;43.76;100316.41;5050001;28;20202;-67
2023/07/05 05:08:30;;;;;;;17.00;8.35;;;;;;;21.58;43.58;100317.06;5049238;28;20202;-66
2023/07/05 05:10:59;;;;;;;14.85;8.18;;;;;;;21.68;42.86;100323.50;5046597;28;20206;-69
2023/07/05 05:13:28;;;;;;;12.60;7.18;;;;;;;21.80;42.00;100322.03;5053515;28;20197;-68
2023/07/05 05:15:57;;;;;;;12.63;7.32;;;;;;;22.03;41.56;100325.19;5039773;28;20241;-68
2023/07/05 05:18:27;;;;;;;11.85;7.03;;;;;;;22.37;40.53;100322.41;5046846;28;20293;-69
2023/07/05 05:20:55;;;;;;;13.38;7.50;;;;;;;22.79;39.47;100323.53;5050523;28;20210;-69
2023/07/05 05:23:25;;;;;;;10.85;7.20;;;;;;;23.25;38.95;100328.72;5041432;28;20199;-68
2023/07/05 05:25:54;;;;;;;15.95;8.18;;;;;;;23.61;37.95;100328.31;5045340;28;20320;-68
2023/07/05 05:28:22;;;;;;;10.13;6.72;;;;;;;23.96;37.39;100329.72;5048271;28;20202;-68
2023/07/05 05:30:50;;;;;;;11.23;6.22;;;;;;;24.19;35.67;100328.25;5044946;28;20209;-68
2023/07/05 05:33:19;;;;;;;9.68;6.72;;;;;;;24.33;35.77;100330.84;5043769;28;20202;-70
2023/07/05 05:35:48;;;;;;;11.55;7.15;;;;;;;24.47;35.49;100328.19;5048361;28;20206;-64
2023/07/05 05:38:16;;;;;;;11.20;6.75;;;;;;;24.67;35.40;100315.50;5046078;28;20217;-65
2023/07/05 05:40:48;;;;;;;14.18;7.10;;;;;;;24.86;34.88;100321.28;5034564;28;20217;-66
2023/07/05 05:43:17;;;;;;;10.93;6.55;;;;;;;25.06;34.89;100323.41;5042986;28;20281;-65
2023/07/05 05:45:45;;;;;;;10.90;7.05;;;;;;;25.35;34.43;100325.88;5052242;28;20562;-65
2023/07/05 05:48:13;;;;;;;13.98;6.88;;;;;;;25.57;34.11;100334.97;5036861;28;20214;-66
2023/07/05 05:50:41;;;;;;;9.30;6.43;;;;;;;25.59;33.55;100333.03;5042743;28;20207;-68
2023/07/05 05:53:10;;;;;;;9.38;6.45;;;;;;;25.52;33.56;100328.22;5046438;28;20246;-64
2023/07/05 05:55:38;;;;;;;12.20;7.32;;;;;;;25.58;34.03;100326.09;5042700;28;20216;-66
2023/07/05 05:58:09;;;;;;;8.25;6.75;;;;;;;25.70;33.90;100325.22;5044640;28;20209;-63
2023/07/05 06:00:38;;;;;;;9.85;6.90;;;;;;;25.88;33.64;100325.75;5037975;28;20206;-63
2023/07/05 06:03:07;;;;;;;11.40;7.40;;;;;;;26.05;33.33;100319.28;5041538;28;20221;-65
2023/07/05 06:05:36;;;;;;;12.43;7.55;;;;;;;26.18;33.15;100320.06;5036756;28;20575;-64
2023/07/05 06:08:05;;;;;;;9.52;7.30;;;;;;;26.24;33.12;100319.63;5052869;28;20194;-64
2023/07/05 06:10:33;;;;;;;10.25;7.30;;;;;;;26.30;32.91;100324.47;5045465;28;20309;-62
2023/07/05 06:13:01;;;;;;;7.70;6.22;;;;;;;26.35;32.75;100322.34;5053790;28;20583;-64
2023/07/05 06:15:30;;;;;;;10.10;7.25;;;;;;;26.28;33.23;100326.38;5053542;28;20606;-64
2023/07/05 06:17:58;;;;;;;12.27;7.47;;;;;;;26.24;33.10;100325.75;5050753;28;20567;-63
2023/07/05 06:20:29;;;;;;;11.93;7.95;;;;;;;26.15;33.38;100325.59;5040725;28;20237;-64
2023/07/05 06:22:57;;;;;;;10.35;7.13;;;;;;;26.09;33.63;100326.88;5050167;28;20538;-64
2023/07/05 06:25:25;;;;;;;12.32;6.85;;;;;;;26.01;34.18;100324.78;5046544;28;20244;-63
2023/07/05 06:27:53;;;;;;;10.90;7.35;;;;;;;25.92;33.75;100328.09;5053060;28;20627;-64
2023/07/05 06:30:21;;;;;;;13.70;7.45;;;;;;;25.80;33.41;100323.66;5053485;28;20206;-65
2023/07/05 06:32:50;;;;;;;10.65;7.05;;;;;;;25.69;33.54;100318.25;5052688;28;20206;-61
2023/07/05 06:35:19;;;;;;;10.57;7.35;;;;;;;25.68;33.76;100324.50;5042064;28;20576;-60
2023/07/05 06:37:47;;;;;;;11.25;7.10;;;;;;;25.62;33.34;100325.75;5042740;28;20210;-62
2023/07/05 06:40:15;;;;;;;10.40;7.40;;;;;;;25.46;33.59;100319.88;5052973;28;20237;-61
2023/07/05 06:42:43;;;;;;;8.57;6.90;;;;;;;25.35;33.81;100325.88;5044314;28;20241;-61
2023/07/05 06:45:11;;;;;;;9.18;6.72;;;;;;;25.34;33.88;100326.00;5049618;28;20251;-61
2023/07/05 06:47:39;;;;;;;7.55;6.35;;;;;;;25.35;34.26;100320.59;5049984;28;20202;-60
2023/07/05 06:50:10;;;;;;;10.60;7.22;;;;;;;25.40;34.52;100318.50;5051642;28;20197;-61
2023/07/05 06:52:39;;;;;;;12.20;7.20;;;;;;;25.39;34.73;100316.81;5052483;28;20263;-62
2023/07/05 06:55:08;;;;;;;11.80;7.43;;;;;;;25.50;34.69;100322.19;5052477;28;20248;-62
2023/07/05 06:57:36;;;;;;;9.45;6.57;;;;;;;25.67;34.45;100322.81;5051852;28;20229;-62
2023/07/05 07:00:06;;;;;;;8.13;6.25;;;;;;;25.87;33.51;100321.44;5052437;28;20260;-61
2023/07/05 07:02:34;;;;;;;9.60;6.60;;;;;;;25.84;31.81;100317.22;5042754;28;20238;-61
2023/07/05 07:05:03;;;;;;;14.68;6.88;;;;;;;25.65;32.58;100314.16;5043949;28;20287;-60
2023/07/05 07:07:32;;;;;;;9.05;6.90;;;;;;;25.61;33.08;100312.69;5051689;28;20308;-60
2023/07/05 07:10:03;;;;;;;8.88;6.53;;;;;;;25.78;32.89;100317.63;5043026;28;20230;-63
2023/07/05 07:12:31;;;;;;;8.93;7.35;;;;;;;25.98;33.00;100324.16;5041214;28;20685;-62
2023/07/05 07:14:59;;;;;;;12.02;7.40;;;;;;;26.12;33.25;100315.25;5046401;28;20331;-61
2023/07/05 07:17:27;;;;;;;9.38;7.65;;;;;;;26.29;32.71;100312.25;5038765;28;20312;-62
2023/07/05 07:19:55;;;;;;;10.43;7.80;;;;;;;26.46;32.63;100316.28;5048760;28;20252;-65
2023/07/05 07:22:24;;;;;;;13.75;8.57;;;;;;;26.69;32.66;100310.13;5040791;28;20604;-60
2023/07/05 07:24:54;;;;;;;11.77;8.60;;;;;;;26.92;32.13;100320.81;5047390;28;20313;-60
2023/07/05 07:27:22;;;;;;;10.55;7.70;;;;;;;27.02;31.19;100310.38;5049664;28;20198;-60
2023/07/05 07:29:53;;;;;;;15.70;8.25;;;;;;;27.10;31.18;100315.91;5041852;28;20213;-58
2023/07/05 07:32:21;;;;;;;11.10;7.80;;;;;;;28.04;30.30;100314.81;5047538;28;20203;-61
2023/07/05 07:34:52;;;;;;;11.23;7.80;;;;;;;29.65;28.46;100304.06;5044821;28;20202;-66
2023/07/05 07:37:20;;;;;;;11.63;8.38;;;;;;;31.64;25.36;100302.66;5051298;28;20304;-66
2023/07/05 07:39:48;;;;;;;14.50;8.43;;;;;;;33.15;23.04;100299.31;5043160;28;20752;-64
2023/07/05 07:42:17;;;;;;;11.70;8.25;;;;;;;34.16;22.11;100294.06;5047133;28;20555;-62
2023/07/05 07:44:45;;;;;;;11.23;8.35;;;;;;;34.86;20.57;100296.31;5048975;28;20201;-66
2023/07/05 07:47:13;;;;;;;11.57;8.45;;;;;;;34.83;20.58;100299.31;5047348;28;20202;-64
2023/07/05 07:49:41;;;;;;;12.70;8.90;;;;;;;34.85;20.47;100294.63;5050890;28;20221;-62
2023/07/05 07:52:11;;;;;;;11.55;7.90;;;;;;;34.57;20.89;100296.81;5049131;28;20314;-63
2023/07/05 07:54:39;;;;;;;10.80;8.20;;;;;;;33.75;21.47;100295.78;5035127;28;20298;-63
2023/07/05 07:57:08;;;;;;;13.25;8.40;;;;;;;32.74;22.27;100293.66;5044219;28;20194;-63
2023/07/05 07:59:41;;;;;;;10.85;8.48;;;;;;;31.61;23.39;100300.28;5044394;28;20570;-63
2023/07/05 08:02:12;;;;;;;12.93;9.25;;;;;;;30.84;24.65;100303.13;5049671;28;20220;-64
2023/07/05 08:04:44;;;;;;;12.52;9.48;;;;;;;29.90;25.12;100306.22;5051179;28;20245;-64
2023/07/05 08:07:13;;;;;;;13.60;10.15;;;;;;;29.63;25.69;100301.50;5045747;28;20267;-63
2023/07/05 08:09:42;;;;;;;13.35;9.25;;;;;;;29.48;26.09;100308.97;5042493;28;20264;-61
2023/07/05 08:12:10;;;;;;;14.52;9.32;;;;;;;29.36;26.78;100302.06;5047802;28;20194;-64
2023/07/05 08:14:39;;;;;;;11.68;8.98;;;;;;;29.16;27.08;100309.06;5043868;28;20205;-63
2023/07/05 08:17:08;;;;;;;14.27;9.75;;;;;;;29.08;27.31;100301.75;5043270;28;20209;-63
2023/07/05 08:19:36;;;;;;;13.20;7.70;;;;;;;28.91;27.26;100304.16;5040138;28;20221;-63
2023/07/05 08:22:06;;;;;;;18.17;9.57;;;;;;;28.74;27.13;100309.06;5049577;28;20202;-63
2023/07/05 08:24:34;;;;;;;12.85;8.85;;;;;;;28.72;27.49;100289.78;5046085;28;20201;-63
2023/07/05 08:27:04;;;;;;;10.95;8.88;;;;;;;28.74;27.49;100292.31;5039176;28;20242;-62
2023/07/05 08:29:32;;;;;;;12.38;9.55;;;;;;;28.69;26.57;100287.38;5048095;28;20209;-62
2023/07/05 08:32:01;;;;;;;11.73;9.20;;;;;;;28.52;27.10;100293.25;5043316;28;20210;-61
2023/07/05 08:34:30;;;;;;;12.25;9.75;;;;;;;28.31;27.18;100285.22;5047479;28;20206;-61
2023/07/05 08:36:58;;;;;;;11.75;9.88;;;;;;;28.19;27.62;100281.75;5050362;28;20210;-60
2023/07/05 08:39:26;;;;;;;12.15;10.13;;;;;;;28.02;27.34;100274.34;5050092;28;20213;-60
2023/07/05 08:42:12;;;;;;;11.95;9.98;;;;;;;27.99;27.37;100279.91;5045998;28;20198;-64
2023/07/05 08:44:53;;;;;;;14.85;10.50;;;;;;;28.09;27.47;100275.53;5050190;28;20209;-62
2023/07/05 08:47:29;;;;;;;14.32;9.88;;;;;;;28.26;27.59;100277.66;5041507;28;20229;-64
2023/07/05 08:50:07;;;;;;;14.77;10.35;;;;;;;28.45;27.79;100268.22;5045151;28;20263;-63
2023/07/05 08:52:57;;;;;;;13.65;10.50;;;;;;;28.54;27.54;100270.13;5045809;28;20664;-62
2023/07/05 08:55:35;;;;;;;13.75;10.93;;;;;;;28.64;27.46;100268.34;5037755;28;20366;-66
2023/07/05 08:58:03;;;;;;;14.85;10.30;;;;;;;28.58;26.86;100268.88;5049915;28;20232;-62
2023/07/05 09:00:41;;;;;;;16.13;10.23;;;;;;;28.34;26.56;100264.59;5041103;28;20214;-61
2023/07/05 09:03:12;;;;;;;14.18;10.38;;;;;;;28.50;26.99;100263.34;5040593;28;20202;-62
2023/07/05 09:05:45;;;;;;;13.50;10.48;;;;;;;28.52;26.72;100264.09;5044796;28;20567;-62
2023/07/05 09:08:24;;;;;;;11.07;9.80;;;;;;;28.60;26.85;100256.31;5046017;28;20336;-63
2023/07/05 09:10:56;;;;;;;12.27;9.35;;;;;;;28.67;26.92;100257.50;5046504;28;20205;-62
2023/07/05 09:13:35;;;;;;;15.10;10.63;;;;;;;28.66;26.81;100253.16;5044947;28;20213;-61
2023/07/05 09:16:16;;;;;;;15.88;11.18;;;;;;;28.74;26.71;100245.41;5050565;28;20201;-61
2023/07/05 09:18:58;;;;;;;11.77;10.32;;;;;;;28.88;27.09;100247.72;5049843;28;20229;-61
2023/07/05 09:21:34;;;;;;;14.10;10.48;;;;;;;29.08;27.01;100238.09;5042401;28;20206;-62
2023/07/05 09:24:14;;;;;;;13.23;10.30;;;;;;;29.43;26.78;100246.63;5042001;28;20227;-64
2023/07/05 09:26:47;;;;;;;11.80;10.00;;;;;;;29.56;25.67;100244.56;5051948;28;20233;-61
2023/07/05 09:29:27;;;;;;;13.70;10.45;;;;;;;29.47;25.29;100238.25;5050267;28;20591;-62
2023/07/05 09:31:56;;;;;;;15.05;11.10;;;;;;;29.04;25.69;100241.13;5050446;28;20217;-65
2023/07/05 09:34:32;;;;;;;13.43;11.05;;;;;;;29.01;25.68;100236.94;5052392;28;20210;-65
2023/07/05 09:37:02;;;;;;;13.30;11.23;;;;;;;29.05;25.55;100230.41;5052742;28;20654;-65
2023/07/05 09:39:37;;;;;;;17.30;11.60;;;;;;;29.11;25.58;100236.97;5051009;28;20236;-65
2023/07/05 09:42:12;;;;;;;11.48;10.23;;;;;;;29.18;25.82;100229.34;5052582;28;20198;-66
2023/07/05 09:44:41;;;;;;;16.85;12.77;;;;;;;29.22;25.68;100228.94;5053199;28;20220;-67
2023/07/05 09:47:09;;;;;;;15.38;12.00;;;;;;;29.39;25.81;100231.94;5050903;28;20202;-66
2023/07/05 09:49:39;;;;;;;21.15;12.55;;;;;;;29.51;25.16;100230.88;5053465;28;20615;-67
2023/07/05 09:52:11;;;;;;;16.02;11.68;;;;;;;29.64;25.15;100226.16;5048330;28;20214;-66
2023/07/05 09:54:40;;;;;;;15.02;11.98;;;;;;;29.85;25.21;100229.56;5052229;28;20208;-66
2023/07/05 09:57:12;;;;;;;16.13;11.95;;;;;;;30.04;24.82;100211.97;5046624;28;20281;-66
2023/07/05 09:59:40;;;;;;;16.23;11.10;;;;;;;30.33;24.30;100223.47;5051614;28;20224;-66
2023/07/05 10:02:19;;;;;;;15.65;11.95;;;;;;;30.70;24.00;100220.06;5050766;28;20645;-68
2023/07/05 10:04:50;;;;;;;15.55;11.63;;;;;;;31.42;24.06;100212.47;5050178;28;20569;-69
2023/07/05 10:07:20;;;;;;;13.13;11.45;;;;;;;32.01;23.40;100216.47;5041418;28;20305;-68
2023/07/05 10:10:01;;;;;;;16.13;11.52;;;;;;;32.91;22.35;100211.84;5051856;28;20201;-68
2023/07/05 10:12:34;;;;;;;16.92;10.85;;;;;;;33.76;19.68;100204.72;5049784;28;20729;-70
2023/07/05 10:15:03;;;;;;;13.13;11.10;;;;;;;34.25;19.44;100204.00;5045903;28;20206;-72
2023/07/05 10:17:42;;;;;;;12.93;10.82;;;;;;;34.17;19.70;100194.09;5036990;28;20207;-68
2023/07/05 10:20:24;;;;;;;12.55;10.77;;;;;;;34.85;19.21;100199.06;5048147;28;20225;-69
2023/07/05 10:23:01;;;;;;;13.38;11.30;;;;;;;35.60;18.80;100191.63;5047894;28;20202;-69
2023/07/05 10:25:33;;;;;;;15.75;11.48;;;;;;;36.23;17.84;100195.88;5043517;28;20328;-65
2023/07/05 10:28:04;;;;;;;13.27;11.65;;;;;;;36.69;17.82;100187.78;5046281;28;20206;-65
2023/07/05 10:30:33;;;;;;;13.05;11.70;;;;;;;36.98;16.42;100177.06;5052119;28;20198;-65
2023/07/05 10:33:16;;;;;;;13.63;11.70;;;;;;;37.18;16.33;100192.59;5046560;28;20272;-64
2023/07/05 10:35:58;;;;;;;15.82;11.93;;;;;;;36.98;16.98;100184.28;5046581;28;20207;-66
2023/07/05 10:38:28;;;;;;;15.52;12.25;;;;;;;37.12;16.81;100180.75;5050528;28;20234;-66
2023/07/05 10:41:00;;;;;;;14.52;11.30;;;;;;;37.41;16.57;100173.63;5043865;28;20706;-64
2023/07/05 10:43:33;;;;;;;15.98;11.63;;;;;;;37.41;17.19;100166.44;5047490;28;20289;-65
2023/07/05 10:46:03;;;;;;;14.70;12.55;;;;;;;38.06;16.39;100177.28;5051268;28;20202;-65
2023/07/05 10:48:40;;;;;;;14.68;11.57;;;;;;;38.51;15.83;100177.84;5055523;28;20198;-66
2023/07/05 10:51:23;;;;;;;14.63;12.05;;;;;;;37.07;16.23;100168.91;5042929;28;20205;-66
2023/07/05 10:53:56;;;;;;;15.20;12.68;;;;;;;35.71;18.35;100180.50;5039100;28;20570;-65
2023/07/05 10:56:30;;;;;;;13.52;12.13;;;;;;;34.87;19.08;100180.16;5044225;28;20241;-65
2023/07/05 10:59:04;;;;;;;14.40;11.75;;;;;;;33.94;20.25;100175.19;5037394;28;20297;-66
2023/07/05 11:01:39;;;;;;;14.13;11.73;;;;;;;33.22;20.73;100179.34;5049371;28;20202;-66
2023/07/05 11:04:13;;;;;;;12.70;11.13;;;;;;;32.63;21.13;100168.50;5052383;28;20209;-66
2023/07/05 11:06:45;;;;;;;13.95;11.82;;;;;;;32.75;21.36;100169.06;5052175;28;20212;-64
2023/07/05 11:09:13;;;;;;;13.27;11.98;;;;;;;33.29;21.24;100153.66;5052478;28;20205;-65
2023/07/05 11:11:46;;;;;;;13.10;11.70;;;;;;;34.11;20.53;100158.19;5052091;28;20202;-65
2023/07/05 11:14:17;;;;;;;14.60;12.13;;;;;;;34.95;19.77;100156.03;5044416;28;20602;-64
2023/07/05 11:16:47;;;;;;;12.07;10.80;;;;;;;35.86;19.06;100157.25;5038091;28;20205;-65
2023/07/05 11:19:18;;;;;;;12.80;10.80;;;;;;;36.17;17.87;100164.44;5038993;28;20232;-65
2023/07/05 11:21:49;;;;;;;13.98;11.50;;;;;;;35.95;18.32;100160.72;5052066;28;20206;-65
2023/07/05 11:24:50;;;;;;;12.93;10.65;;;;;;;35.54;18.75;100156.47;5036289;28;20214;-65
2023/07/05 11:27:50;;;;;;;13.68;10.13;;;;;;;35.37;18.29;100144.16;5040271;28;20210;-65
2023/07/05 11:30:38;;;;;;;13.68;10.75;;;;;;;34.63;19.14;100145.44;5049354;28;20210;-65
2023/07/05 11:33:15;;;;;;;11.48;10.23;;;;;;;34.54;18.66;100142.78;5051637;28;20233;-66